Troy, MI

4:17 AM EDT on August 28, 2015 (GMT -0400)
Troy | | Change Station
CLOSE
Current Station
Airport
Location: Troy,
Elevation: 728 ft
Nearby Weather Stations

Elev 728 ft 42.54 °N, 83.18 °W | Updated 2 minutes ago

Clear
Clear
54 °F
Feels Like 54 °F
N
0
Wind Variable Wind from North

Today
High -- | Low -- °F
--% Chance of Precip.
Yesterday
High -- | Low -- °F
Precip. -- in
6:53 AM 8:14 PM
Waxing Gibbous, 97% visible
Pressure 30.20 in
Visibility 10.0 miles
Clouds Clear
Dew Point 51 °F
Humidity 92%
Rainfall 0.00 in
Snow Depth Not available.
UV 0 out of 12
Pollen 9.50 out of 12
Air Quality Not available.
Flu Activity Not available.
METAR KVLL 280815Z AUTO 00000KT 10SM CLR 12/11 A3020 RMK AO2 T01210108
Pressure 30.20 in
Visibility 10.0 miles
Clouds Clear
Dew Point 51 °F
Humidity 92%
Rainfall 0.00 in
Snow Depth Not available.
UV 0 out of 12
Pollen 9.50 out of 12
Air Quality Not available.
Flu Activity Not available.
METAR KVLL 280815Z AUTO 00000KT 10SM CLR 12/11 A3020 RMK AO2 T01210108

10-Day Weather Forecast

×

Almanac

Astronomy

Aug. 28, 2015 Rise Set
Actual Time
Civil Twilight
Nautical Twilight
Astronomical Twilight
Moon
Length of Visible Light
Length of Day
Tomorrow will be .
, % of the Moon is Illuminated

Today's Extremes

State Highs State Lows

Community

WunderPhotos

Upload Photos

1,850,348 photos uploaded!

WunderBlogs® & News

Nearby

Air Quality

  Air Quality AQ Index Pollutant
Not available.

Snow Depth

Station Depth Elevation

Earthquake Activity

City Distance Mag. Time & Date
Minimum magnitude displayed is 2.5.

Coastal Water Temperatures

Place Temperature

Stations

Nearby Weather Stations

Station Location Temp. Windchill Dew Point Humidity Wind Precip. Elev Updated Type